createdAt,value
2022-08-18T00:04:53.260Z,22.95
2022-08-18T00:10:02.262Z,21.77
2022-08-18T00:15:10.341Z,24.50
2022-08-18T00:20:18.827Z,23.87
2022-08-18T00:25:45.599Z,24.85
2022-08-18T00:30:53.880Z,25.50
2022-08-18T00:35:57.637Z,24.67
2022-08-18T00:41:03.866Z,24.70
2022-08-18T00:46:19.505Z,25.73
2022-08-18T00:51:30.696Z,25.07
2022-08-18T00:56:46.613Z,26.10
2022-08-18T01:01:55.955Z,26.53
2022-08-18T01:07:10.005Z,25.95
2022-08-18T01:12:43.979Z,27.50
2022-08-18T01:17:40.872Z,26.03
2022-08-18T01:22:51.780Z,27.23
2022-08-18T01:28:00.827Z,26.27
2022-08-18T01:33:06.167Z,29.00
2022-08-18T01:38:13.740Z,26.87
2022-08-18T01:43:19.467Z,27.77
2022-08-18T01:48:24.606Z,27.10
2022-08-18T01:53:29.808Z,26.77
2022-08-18T01:58:37.365Z,27.63
2022-08-18T02:03:46.210Z,26.50
2022-08-18T02:08:53.689Z,25.90
2022-08-18T02:13:58.313Z,27.83
2022-08-18T02:19:03.860Z,26.67
2022-08-18T02:24:08.990Z,27.27
2022-08-18T02:29:14.863Z,27.60
2022-08-18T02:34:20.422Z,26.33
2022-08-18T02:39:25.432Z,26.03
2022-08-18T02:44:32.272Z,25.27
2022-08-18T02:49:37.469Z,25.27
2022-08-18T02:54:42.728Z,27.32
2022-08-18T02:59:48.458Z,27.10
2022-08-18T03:04:54.206Z,30.57
2022-08-18T03:10:03.081Z,29.30
2022-08-18T03:15:06.742Z,33.40
2022-08-18T03:20:12.558Z,35.33
2022-08-18T03:25:17.822Z,37.67
2022-08-18T03:30:24.038Z,35.70
2022-08-18T03:35:30.722Z,32.30
2022-08-18T03:40:36.902Z,32.10
2022-08-18T03:45:42.181Z,32.10
2022-08-18T03:50:48.935Z,34.43
2022-08-18T03:55:54.157Z,65.33
2022-08-18T04:00:59.534Z,58.03
2022-08-18T04:06:07.762Z,89.90
2022-08-18T04:11:14.831Z,91.23
2022-08-18T04:16:20.081Z,87.20
2022-08-18T04:21:25.597Z,81.67
2022-08-18T04:26:31.896Z,66.62
2022-08-18T04:31:38.497Z,55.90
2022-08-18T04:36:45.142Z,47.40
2022-08-18T04:41:50.352Z,51.07
2022-08-18T04:46:56.353Z,43.90
2022-08-18T04:52:34.333Z,40.20
2022-08-18T04:57:26.999Z,35.43
2022-08-18T05:02:33.844Z,28.27
2022-08-18T05:07:41.983Z,29.97
2022-08-18T05:12:49.692Z,30.17
2022-08-18T05:17:56.766Z,30.10
2022-08-18T05:23:04.164Z,32.10
2022-08-18T05:28:10.254Z,29.40
2022-08-18T05:33:15.579Z,30.87
2022-08-18T05:38:40.124Z,29.57
2022-08-18T05:43:51.397Z,30.07
2022-08-18T05:48:54.245Z,28.70
2022-08-18T05:54:18.816Z,29.98
2022-08-18T05:59:30.031Z,30.43
2022-08-18T06:04:38.609Z,30.20
2022-08-18T06:09:50.199Z,31.97
2022-08-18T06:15:01.565Z,27.93
2022-08-18T06:20:29.468Z,29.83
2022-08-18T06:26:13.949Z,30.25
2022-08-18T06:31:29.628Z,29.72
2022-08-18T06:37:01.887Z,29.63
2022-08-18T06:42:07.977Z,28.83
2022-08-18T06:47:35.484Z,28.60
2022-08-18T06:52:43.606Z,27.32
2022-08-18T06:58:00.345Z,25.37
2022-08-18T07:03:10.929Z,25.15
2022-08-18T07:08:19.107Z,24.15
2022-08-18T07:13:27.552Z,20.62
2022-08-18T07:18:32.921Z,18.48
2022-08-18T07:23:40.937Z,23.50
2022-08-18T07:28:49.687Z,18.23
2022-08-18T07:34:00.610Z,18.17
2022-08-18T07:39:14.735Z,19.60
2022-08-18T07:44:43.641Z,18.67
2022-08-18T07:50:15.563Z,18.07
2022-08-18T07:55:09.901Z,17.17
2022-08-18T08:00:57.381Z,17.35
2022-08-18T08:05:57.877Z,15.78
2022-08-18T08:11:09.073Z,14.00
2022-08-18T08:16:44.860Z,13.98
2022-08-18T08:21:53.378Z,12.70
2022-08-18T08:27:01.705Z,13.70
2022-08-18T08:32:13.557Z,11.53
2022-08-18T08:37:27.741Z,11.05
2022-08-18T08:42:41.335Z,10.65
2022-08-18T08:48:08.453Z,10.65
2022-08-18T08:53:17.352Z,9.53
2022-08-18T08:58:34.561Z,8.88
2022-08-18T09:03:51.592Z,9.28
2022-08-18T09:09:05.776Z,8.95
2022-08-18T09:14:20.018Z,10.70
2022-08-18T09:19:30.989Z,10.15
2022-08-18T09:24:54.177Z,11.20
2022-08-18T09:30:02.524Z,10.75
2022-08-18T09:35:29.181Z,13.32
2022-08-18T09:41:02.675Z,12.28
2022-08-18T09:46:19.226Z,11.57
2022-08-18T09:51:36.519Z,11.43
2022-08-18T09:56:55.523Z,11.65
2022-08-18T10:02:03.658Z,10.88
2022-08-18T10:07:22.599Z,10.20
2022-08-18T10:12:36.653Z,11.25
2022-08-18T10:17:50.000Z,10.72
2022-08-18T10:22:55.032Z,10.05
2022-08-18T10:28:02.152Z,10.28
2022-08-18T10:33:17.781Z,9.68
2022-08-18T10:38:32.485Z,9.40
2022-08-18T10:49:08.815Z,8.55
2022-08-18T10:54:20.125Z,9.15
2022-08-18T10:59:47.838Z,9.28
2022-08-18T11:10:28.548Z,8.95
2022-08-18T11:15:22.401Z,9.30
2022-08-18T11:20:23.530Z,9.40
2022-08-18T11:25:38.734Z,9.45
2022-08-18T11:30:45.979Z,8.90
2022-08-18T11:36:01.749Z,9.50
2022-08-18T11:41:17.736Z,8.43
2022-08-18T11:46:45.128Z,9.03
2022-08-18T11:52:03.346Z,8.58
2022-08-18T11:57:30.253Z,9.10
2022-08-18T12:02:36.445Z,8.50
2022-08-18T12:07:57.059Z,8.05
2022-08-18T12:12:55.729Z,8.55
2022-08-18T12:18:01.322Z,9.05
2022-08-18T12:23:38.957Z,8.48
2022-08-18T12:28:35.958Z,8.53
2022-08-18T12:33:48.464Z,9.23
2022-08-18T12:38:51.860Z,10.23
2022-08-18T12:43:59.203Z,10.38
2022-08-18T12:49:04.505Z,10.05
2022-08-18T13:16:54.087Z,10.20
2022-08-18T13:21:42.874Z,9.70
2022-08-18T13:26:50.250Z,10.13
2022-08-18T13:31:59.383Z,10.98
2022-08-18T13:37:06.227Z,10.88
2022-08-18T13:42:26.068Z,10.75
2022-08-18T13:47:18.132Z,9.68
2022-08-18T13:52:34.386Z,9.63
2022-08-18T13:57:38.912Z,11.28
2022-08-18T14:02:48.084Z,8.05
2022-08-18T14:07:53.543Z,8.28
2022-08-18T14:13:07.911Z,8.43
2022-08-18T14:18:09.103Z,7.45
2022-08-18T14:23:33.896Z,7.33
2022-08-18T14:28:41.426Z,7.25
2022-08-18T14:33:50.819Z,7.70
2022-08-18T14:38:55.346Z,7.75
2022-08-18T14:44:13.376Z,8.28
2022-08-18T14:49:10.929Z,7.90
2022-08-18T14:54:35.966Z,6.87
2022-08-18T14:59:41.237Z,7.95
2022-08-18T15:04:53.144Z,6.65
2022-08-18T15:10:14.941Z,7.12
2022-08-18T15:15:02.018Z,7.22
2022-08-18T15:20:08.990Z,6.97
2022-08-18T15:25:37.373Z,7.47
2022-08-18T15:30:44.195Z,6.72
2022-08-18T15:35:54.725Z,6.20
2022-08-18T15:41:06.208Z,6.92
2022-08-18T15:46:10.926Z,6.35
2022-08-18T15:51:19.855Z,5.67
2022-08-18T15:56:26.674Z,6.28
2022-08-18T16:01:33.138Z,6.37
2022-08-18T16:06:41.166Z,6.35
2022-08-18T16:11:48.012Z,6.97
2022-08-18T16:16:55.655Z,8.15
2022-08-18T16:22:00.933Z,8.15
2022-08-18T16:27:09.323Z,8.15
2022-08-18T16:32:16.333Z,8.48
2022-08-18T16:37:23.305Z,7.92
2022-08-18T16:42:32.492Z,7.97
2022-08-18T16:47:40.696Z,9.28
2022-08-18T16:52:48.749Z,9.08
2022-08-18T16:58:15.434Z,9.00
2022-08-18T17:03:37.511Z,12.53
2022-08-18T17:10:37.432Z,11.28
2022-08-18T17:15:50.454Z,10.65
2022-08-18T17:20:56.265Z,9.93
2022-08-18T17:26:03.358Z,9.80
2022-08-18T17:31:10.131Z,9.58
2022-08-18T17:36:18.435Z,9.65
2022-08-18T17:41:25.830Z,8.95
2022-08-18T17:46:34.512Z,11.22
2022-08-18T17:51:46.124Z,11.03
2022-08-18T17:57:06.647Z,10.68
2022-08-18T18:02:29.652Z,10.53
2022-08-18T18:07:51.894Z,11.33
2022-08-18T18:13:34.387Z,9.53
2022-08-18T18:18:42.983Z,9.95
2022-08-18T18:23:51.239Z,9.75
2022-08-18T18:29:19.535Z,9.50
2022-08-18T18:34:33.923Z,11.50
2022-08-18T18:39:39.715Z,10.75
2022-08-18T18:44:54.096Z,10.55
2022-08-18T18:50:02.278Z,10.00
2022-08-18T18:55:10.523Z,10.43
2022-08-18T19:00:24.547Z,9.35
2022-08-18T19:05:37.190Z,8.73
2022-08-18T19:11:07.548Z,8.80
2022-08-18T19:16:23.588Z,9.03
2022-08-18T19:22:03.205Z,10.18
2022-08-18T19:26:46.817Z,10.58
2022-08-18T19:32:04.184Z,11.33
2022-08-18T19:37:22.736Z,11.50
2022-08-18T19:42:40.415Z,12.00
2022-08-18T19:47:52.289Z,11.05
2022-08-18T19:53:35.066Z,11.20
2022-08-18T19:59:18.272Z,12.73
2022-08-18T20:04:29.874Z,13.78
2022-08-18T20:10:08.380Z,13.20
2022-08-18T20:15:19.293Z,18.45
2022-08-18T20:20:29.905Z,20.30
2022-08-18T20:25:43.998Z,18.98
2022-08-18T20:31:11.989Z,18.30
2022-08-18T20:36:31.603Z,16.80
2022-08-18T20:41:42.301Z,16.90
2022-08-18T20:46:54.259Z,15.83
2022-08-18T20:52:09.213Z,16.65
2022-08-18T20:57:15.114Z,15.25
2022-08-18T21:02:28.929Z,15.32
2022-08-18T21:07:37.885Z,14.85
2022-08-18T21:12:55.706Z,16.42
2022-08-18T21:18:09.982Z,14.58
2022-08-18T21:23:18.492Z,15.18
2022-08-18T21:28:26.031Z,16.17
2022-08-18T21:33:33.500Z,14.43
2022-08-18T21:38:39.222Z,15.35
2022-08-18T21:43:49.815Z,16.70
2022-08-18T21:48:58.477Z,17.65
2022-08-18T21:54:04.364Z,16.12
2022-08-18T21:59:18.716Z,15.13
2022-08-18T22:04:29.907Z,15.75
2022-08-18T22:09:55.747Z,16.42
2022-08-18T22:15:19.202Z,18.00
2022-08-18T22:20:45.837Z,18.30
2022-08-18T22:25:51.388Z,17.82
2022-08-18T22:30:59.699Z,18.05
2022-08-18T22:36:06.251Z,18.57
2022-08-18T22:41:11.630Z,18.90
2022-08-18T22:46:21.704Z,20.48
2022-08-18T22:51:28.472Z,19.00
2022-08-18T22:56:35.302Z,18.52
2022-08-18T23:01:44.434Z,18.60
2022-08-18T23:06:53.906Z,18.50
2022-08-18T23:12:02.422Z,18.55
2022-08-18T23:17:13.697Z,17.50
2022-08-18T23:22:19.646Z,18.10
2022-08-18T23:27:24.964Z,18.60
2022-08-18T23:32:32.159Z,18.70
2022-08-18T23:37:38.316Z,20.37
2022-08-18T23:42:43.807Z,17.90
2022-08-18T23:47:49.104Z,19.00
2022-08-18T23:53:00.171Z,17.42
2022-08-18T23:58:07.052Z,17.77
